sensor_id;sensor_type;location;lat;lon;timestamp;pressure;altitude;pressure_sealevel;temperature;humidity
74228;BME280;62587;52.352;5.006;2023-03-21T00:01:29;101532.22;;;20.43;45.02
74228;BME280;62587;52.352;5.006;2023-03-21T00:03:54;101519.22;;;20.39;45.02
74228;BME280;62587;52.352;5.006;2023-03-21T00:06:19;101524.34;;;20.42;45.38
74228;BME280;62587;52.352;5.006;2023-03-21T00:08:46;101513.03;;;20.38;44.88
74228;BME280;62587;52.352;5.006;2023-03-21T00:11:12;101517.75;;;20.33;45.40
74228;BME280;62587;52.352;5.006;2023-03-21T00:13:38;101507.88;;;20.35;45.23
74228;BME280;62587;52.352;5.006;2023-03-21T00:16:12;101511.50;;;20.34;45.39
74228;BME280;62587;52.352;5.006;2023-03-21T00:18:45;101510.66;;;20.34;45.42
74228;BME280;62587;52.352;5.006;2023-03-21T00:21:14;101505.34;;;20.34;45.38
74228;BME280;62587;52.352;5.006;2023-03-21T00:23:41;101499.16;;;20.33;45.25
74228;BME280;62587;52.352;5.006;2023-03-21T00:26:07;101509.88;;;20.32;45.37
74228;BME280;62587;52.352;5.006;2023-03-21T00:28:38;101508.00;;;20.34;45.34
74228;BME280;62587;52.352;5.006;2023-03-21T00:31:04;101510.47;;;20.37;45.32
74228;BME280;62587;52.352;5.006;2023-03-21T00:33:30;101505.22;;;20.35;45.20
74228;BME280;62587;52.352;5.006;2023-03-21T00:35:55;101507.03;;;20.35;45.14
74228;BME280;62587;52.352;5.006;2023-03-21T00:38:22;101502.56;;;20.35;45.08
74228;BME280;62587;52.352;5.006;2023-03-21T00:40:48;101496.50;;;20.33;45.36
74228;BME280;62587;52.352;5.006;2023-03-21T00:43:15;101497.34;;;20.34;45.35
74228;BME280;62587;52.352;5.006;2023-03-21T00:45:45;101495.56;;;20.34;45.13
74228;BME280;62587;52.352;5.006;2023-03-21T00:48:12;101491.34;;;20.30;45.39
74228;BME280;62587;52.352;5.006;2023-03-21T00:50:38;101487.00;;;20.29;45.26
74228;BME280;62587;52.352;5.006;2023-03-21T00:53:04;101487.06;;;20.28;45.20
74228;BME280;62587;52.352;5.006;2023-03-21T00:55:30;101490.50;;;20.30;45.42
74228;BME280;62587;52.352;5.006;2023-03-21T00:57:55;101484.16;;;20.32;45.27
74228;BME280;62587;52.352;5.006;2023-03-21T01:00:21;101476.34;;;20.29;45.18
74228;BME280;62587;52.352;5.006;2023-03-21T01:02:47;101477.97;;;20.32;45.16
74228;BME280;62587;52.352;5.006;2023-03-21T01:08:07;101469.25;;;20.30;45.18
74228;BME280;62587;52.352;5.006;2023-03-21T01:10:40;101469.31;;;20.28;45.49
74228;BME280;62587;52.352;5.006;2023-03-21T01:13:07;101463.06;;;20.29;45.16
74228;BME280;62587;52.352;5.006;2023-03-21T01:15:33;101463.94;;;20.30;45.46
74228;BME280;62587;52.352;5.006;2023-03-21T01:17:59;101454.97;;;20.31;45.21
74228;BME280;62587;52.352;5.006;2023-03-21T01:20:25;101451.47;;;20.30;45.67
74228;BME280;62587;52.352;5.006;2023-03-21T01:22:50;101451.47;;;20.30;45.29
74228;BME280;62587;52.352;5.006;2023-03-21T01:25:15;101452.50;;;20.28;45.35
74228;BME280;62587;52.352;5.006;2023-03-21T01:27:41;101455.16;;;20.28;45.53
74228;BME280;62587;52.352;5.006;2023-03-21T01:30:07;101446.25;;;20.29;45.42
74228;BME280;62587;52.352;5.006;2023-03-21T01:32:32;101447.19;;;20.28;45.45
74228;BME280;62587;52.352;5.006;2023-03-21T01:34:58;101436.47;;;20.29;45.49
74228;BME280;62587;52.352;5.006;2023-03-21T01:37:23;101433.69;;;20.31;45.18
74228;BME280;62587;52.352;5.006;2023-03-21T01:39:50;101430.19;;;20.30;45.43
74228;BME280;62587;52.352;5.006;2023-03-21T01:42:16;101426.31;;;20.36;45.12
74228;BME280;62587;52.352;5.006;2023-03-21T01:44:59;101425.44;;;20.35;45.37
74228;BME280;62587;52.352;5.006;2023-03-21T01:47:24;101422.88;;;20.34;45.29
74228;BME280;62587;52.352;5.006;2023-03-21T01:49:52;101419.38;;;20.33;45.01
74228;BME280;62587;52.352;5.006;2023-03-21T01:52:19;101420.34;;;20.32;45.32
74228;BME280;62587;52.352;5.006;2023-03-21T01:54:45;101417.69;;;20.32;45.18
74228;BME280;62587;52.352;5.006;2023-03-21T01:57:16;101418.59;;;20.31;45.23
74228;BME280;62587;52.352;5.006;2023-03-21T01:59:46;101419.38;;;20.33;45.16
74228;BME280;62587;52.352;5.006;2023-03-21T02:02:26;101421.38;;;20.30;45.36
74228;BME280;62587;52.352;5.006;2023-03-21T02:04:53;101424.03;;;20.30;45.36
74228;BME280;62587;52.352;5.006;2023-03-21T02:07:33;101419.47;;;20.32;45.34
74228;BME280;62587;52.352;5.006;2023-03-21T02:10:03;101408.84;;;20.32;45.46
74228;BME280;62587;52.352;5.006;2023-03-21T02:12:29;101413.41;;;20.30;45.25
74228;BME280;62587;52.352;5.006;2023-03-21T02:14:55;101402.75;;;20.30;45.35
74228;BME280;62587;52.352;5.006;2023-03-21T02:17:36;101396.59;;;20.29;45.61
74228;BME280;62587;52.352;5.006;2023-03-21T02:20:27;101397.44;;;20.30;45.55
74228;BME280;62587;52.352;5.006;2023-03-21T02:26:10;101388.69;;;20.28;45.32
74228;BME280;62587;52.352;5.006;2023-03-21T02:28:47;101382.31;;;20.30;45.32
74228;BME280;62587;52.352;5.006;2023-03-21T02:34:19;101380.69;;;20.28;45.42
74228;BME280;62587;52.352;5.006;2023-03-21T02:36:59;101387.00;;;20.27;45.69
74228;BME280;62587;52.352;5.006;2023-03-21T02:42:05;101374.56;;;20.27;45.62
74228;BME280;62587;52.352;5.006;2023-03-21T02:44:45;101380.81;;;20.26;45.69
74228;BME280;62587;52.352;5.006;2023-03-21T02:47:19;101372.94;;;20.25;45.81
74228;BME280;62587;52.352;5.006;2023-03-21T02:50:03;101371.09;;;20.25;45.78
74228;BME280;62587;52.352;5.006;2023-03-21T02:52:33;101364.00;;;20.26;45.54
74228;BME280;62587;52.352;5.006;2023-03-21T02:55:00;101369.31;;;20.26;45.63
74228;BME280;62587;52.352;5.006;2023-03-21T02:57:29;101368.25;;;20.28;45.61
74228;BME280;62587;52.352;5.006;2023-03-21T02:59:55;101362.94;;;20.28;45.47
74228;BME280;62587;52.352;5.006;2023-03-21T03:02:25;101362.09;;;20.28;45.93
74228;BME280;62587;52.352;5.006;2023-03-21T03:04:51;101354.03;;;20.29;45.90
74228;BME280;62587;52.352;5.006;2023-03-21T03:07:59;101357.63;;;20.28;45.56
74228;BME280;62587;52.352;5.006;2023-03-21T03:11:21;101358.50;;;20.29;45.60
74228;BME280;62587;52.352;5.006;2023-03-21T03:16:27;101358.38;;;20.30;45.48
74228;BME280;62587;52.352;5.006;2023-03-21T03:19:00;101356.88;;;20.26;45.67
74228;BME280;62587;52.352;5.006;2023-03-21T03:21:41;101345.59;;;20.23;46.03
74228;BME280;62587;52.352;5.006;2023-03-21T03:29:29;101348.78;;;20.28;45.74
74228;BME280;62587;52.352;5.006;2023-03-21T03:32:04;101341.78;;;20.27;45.79
74228;BME280;62587;52.352;5.006;2023-03-21T03:34:36;101341.97;;;20.24;45.85
74228;BME280;62587;52.352;5.006;2023-03-21T03:37:07;101336.66;;;20.24;45.56
74228;BME280;62587;52.352;5.006;2023-03-21T03:39:59;101343.84;;;20.22;45.66
74228;BME280;62587;52.352;5.006;2023-03-21T03:42:34;101345.47;;;20.24;45.70
74228;BME280;62587;52.352;5.006;2023-03-21T03:45:01;101336.66;;;20.24;45.98
74228;BME280;62587;52.352;5.006;2023-03-21T03:47:35;101336.66;;;20.24;45.93
74228;BME280;62587;52.352;5.006;2023-03-21T03:50:26;101337.63;;;20.23;45.88
74228;BME280;62587;52.352;5.006;2023-03-21T03:53:01;101337.50;;;20.24;45.48
74228;BME280;62587;52.352;5.006;2023-03-21T03:55:29;101331.44;;;20.22;45.91
74228;BME280;62587;52.352;5.006;2023-03-21T03:57:59;101335.84;;;20.22;45.77
74228;BME280;62587;52.352;5.006;2023-03-21T04:00:25;101334.84;;;20.24;45.61
74228;BME280;62587;52.352;5.006;2023-03-21T04:02:51;101332.09;;;20.26;45.67
74228;BME280;62587;52.352;5.006;2023-03-21T04:05:17;101328.66;;;20.24;45.90
74228;BME280;62587;52.352;5.006;2023-03-21T04:07:46;101328.81;;;20.21;45.91
74228;BME280;62587;52.352;5.006;2023-03-21T04:10:12;101330.47;;;20.23;45.62
74228;BME280;62587;52.352;5.006;2023-03-21T04:12:38;101330.47;;;20.23;45.59
74228;BME280;62587;52.352;5.006;2023-03-21T04:15:04;101327.88;;;20.22;46.14
74228;BME280;62587;52.352;5.006;2023-03-21T04:17:30;101329.69;;;20.21;46.06
74228;BME280;62587;52.352;5.006;2023-03-21T04:19:57;101321.81;;;20.20;46.04
74228;BME280;62587;52.352;5.006;2023-03-21T04:22:23;101327.13;;;20.20;45.88
74228;BME280;62587;52.352;5.006;2023-03-21T04:24:48;101324.31;;;20.23;45.75
74228;BME280;62587;52.352;5.006;2023-03-21T04:27:14;101321.69;;;20.21;46.12
74228;BME280;62587;52.352;5.006;2023-03-21T04:29:40;101314.78;;;20.19;45.80
74228;BME280;62587;52.352;5.006;2023-03-21T04:32:05;101321.69;;;20.21;45.86
74228;BME280;62587;52.352;5.006;2023-03-21T04:34:43;101316.56;;;20.18;45.81
74228;BME280;62587;52.352;5.006;2023-03-21T04:37:17;101310.31;;;20.19;45.72
74228;BME280;62587;52.352;5.006;2023-03-21T04:39:43;101318.28;;;20.19;46.05
74228;BME280;62587;52.352;5.006;2023-03-21T04:42:11;101321.69;;;20.21;46.03
74228;BME280;62587;52.352;5.006;2023-03-21T04:44:41;101316.34;;;20.23;45.66
74228;BME280;62587;52.352;5.006;2023-03-21T04:47:06;101315.53;;;20.21;45.70
74228;BME280;62587;52.352;5.006;2023-03-21T04:49:32;101312.81;;;20.22;45.79
74228;BME280;62587;52.352;5.006;2023-03-21T04:51:57;101314.59;;;20.22;45.90
74228;BME280;62587;52.352;5.006;2023-03-21T04:54:23;101309.28;;;20.22;45.94
74228;BME280;62587;52.352;5.006;2023-03-21T04:56:48;101306.78;;;20.19;45.80
74228;BME280;62587;52.352;5.006;2023-03-21T04:59:17;101310.31;;;20.19;46.14
74228;BME280;62587;52.352;5.006;2023-03-21T05:01:43;101308.59;;;20.18;45.76
74228;BME280;62587;52.352;5.006;2023-03-21T05:04:10;101312.13;;;20.19;45.58
74228;BME280;62587;52.352;5.006;2023-03-21T05:06:36;101311.19;;;20.20;45.82
74228;BME280;62587;52.352;5.006;2023-03-21T05:09:03;101311.25;;;20.18;45.84
74228;BME280;62587;52.352;5.006;2023-03-21T05:11:30;101309.44;;;20.19;46.28
74228;BME280;62587;52.352;5.006;2023-03-21T05:13:57;101309.44;;;20.19;45.82
74228;BME280;62587;52.352;5.006;2023-03-21T05:16:22;101310.31;;;20.19;46.13
74228;BME280;62587;52.352;5.006;2023-03-21T05:18:57;101305.09;;;20.18;46.17
74228;BME280;62587;52.352;5.006;2023-03-21T05:21:28;101307.75;;;20.18;45.88
74228;BME280;62587;52.352;5.006;2023-03-21T05:23:54;101302.63;;;20.15;46.12
74228;BME280;62587;52.352;5.006;2023-03-21T05:26:23;101295.59;;;20.14;46.03
74228;BME280;62587;52.352;5.006;2023-03-21T05:28:48;101291.03;;;20.16;46.05
74228;BME280;62587;52.352;5.006;2023-03-21T05:31:15;101299.97;;;20.15;45.95
74228;BME280;62587;52.352;5.006;2023-03-21T05:33:44;101292.94;;;20.14;45.95
74228;BME280;62587;52.352;5.006;2023-03-21T05:36:11;101302.63;;;20.15;46.05
74228;BME280;62587;52.352;5.006;2023-03-21T05:38:37;101298.34;;;20.12;46.23
74228;BME280;62587;52.352;5.006;2023-03-21T05:41:03;101293.91;;;20.13;46.28
74228;BME280;62587;52.352;5.006;2023-03-21T05:43:29;101297.50;;;20.12;45.98
74228;BME280;62587;52.352;5.006;2023-03-21T05:45:54;101297.50;;;20.12;46.05
74228;BME280;62587;52.352;5.006;2023-03-21T05:48:20;101301.00;;;20.12;46.29
74228;BME280;62587;52.352;5.006;2023-03-21T05:50:45;101300.91;;;20.14;45.93
74228;BME280;62587;52.352;5.006;2023-03-21T05:53:11;101299.22;;;20.13;46.02
74228;BME280;62587;52.352;5.006;2023-03-21T05:55:36;101306.22;;;20.14;46.12
74228;BME280;62587;52.352;5.006;2023-03-21T05:58:02;101296.56;;;20.13;46.14
74228;BME280;62587;52.352;5.006;2023-03-21T06:00:28;101296.56;;;20.13;46.22
74228;BME280;62587;52.352;5.006;2023-03-21T06:02:53;101301.78;;;20.14;46.05
74228;BME280;62587;52.352;5.006;2023-03-21T06:05:19;101301.88;;;20.13;46.26
74228;BME280;62587;52.352;5.006;2023-03-21T06:07:44;101301.78;;;20.14;45.93
74228;BME280;62587;52.352;5.006;2023-03-21T06:10:10;101301.78;;;20.14;46.06
74228;BME280;62587;52.352;5.006;2023-03-21T06:12:35;101295.59;;;20.14;46.07
74228;BME280;62587;52.352;5.006;2023-03-21T06:15:03;101297.38;;;20.13;46.19
74228;BME280;62587;52.352;5.006;2023-03-21T06:17:30;101301.13;;;20.11;46.26
74228;BME280;62587;52.352;5.006;2023-03-21T06:19:55;101292.34;;;20.08;46.11
74228;BME280;62587;52.352;5.006;2023-03-21T06:22:21;101299.50;;;20.08;46.36
74228;BME280;62587;52.352;5.006;2023-03-21T06:24:46;101301.19;;;20.09;46.27
74228;BME280;62587;52.352;5.006;2023-03-21T06:27:12;101300.25;;;20.10;45.94
74228;BME280;62587;52.352;5.006;2023-03-21T06:29:37;101309.84;;;20.13;46.14
74228;BME280;62587;52.352;5.006;2023-03-21T06:32:03;101301.13;;;20.11;45.80
74228;BME280;62587;52.352;5.006;2023-03-21T06:34:28;101308.22;;;20.10;46.32
74228;BME280;62587;52.352;5.006;2023-03-21T06:36:53;101305.28;;;20.15;46.25
74228;BME280;62587;52.352;5.006;2023-03-21T06:39:20;101307.03;;;20.30;45.56
74228;BME280;62587;52.352;5.006;2023-03-21T06:41:45;101305.47;;;20.40;45.46
74228;BME280;62587;52.352;5.006;2023-03-21T06:44:11;101309.38;;;20.48;45.30
74228;BME280;62587;52.352;5.006;2023-03-21T06:46:36;101304.31;;;20.58;45.26
74228;BME280;62587;52.352;5.006;2023-03-21T06:49:02;101305.53;;;20.66;45.04
74228;BME280;62587;52.352;5.006;2023-03-21T06:51:28;101309.41;;;20.75;44.63
74228;BME280;62587;52.352;5.006;2023-03-21T06:53:53;101302.50;;;20.85;44.44
74228;BME280;62587;52.352;5.006;2023-03-21T06:56:19;101302.75;;;20.95;44.26
74228;BME280;62587;52.352;5.006;2023-03-21T06:58:44;101296.59;;;21.08;44.09
74228;BME280;62587;52.352;5.006;2023-03-21T07:01:10;101300.22;;;21.20;44.04
74228;BME280;62587;52.352;5.006;2023-03-21T07:03:36;101295.34;;;21.26;43.86
74228;BME280;62587;52.352;5.006;2023-03-21T07:06:06;101300.59;;;21.41;43.69
74228;BME280;62587;52.352;5.006;2023-03-21T07:08:32;101298.38;;;21.47;43.65
74228;BME280;62587;52.352;5.006;2023-03-21T07:10:58;101300.81;;;21.50;43.50
74228;BME280;62587;52.352;5.006;2023-03-21T07:13:23;101302.34;;;21.54;43.38
74228;BME280;62587;52.352;5.006;2023-03-21T07:15:49;101295.50;;;21.63;43.60
74228;BME280;62587;52.352;5.006;2023-03-21T07:18:14;101286.56;;;21.64;43.62
74228;BME280;62587;52.352;5.006;2023-03-21T07:20:39;101294.03;;;21.71;43.58
74228;BME280;62587;52.352;5.006;2023-03-21T07:23:05;101284.66;;;21.78;43.38
74228;BME280;62587;52.352;5.006;2023-03-21T07:25:31;101293.09;;;21.85;43.15
74228;BME280;62587;52.352;5.006;2023-03-21T07:27:56;101297.78;;;21.94;43.45
74228;BME280;62587;52.352;5.006;2023-03-21T07:30:21;101292.03;;;22.00;43.69
74228;BME280;62587;52.352;5.006;2023-03-21T07:32:47;101278.06;;;22.09;43.62
74228;BME280;62587;52.352;5.006;2023-03-21T07:35:15;101281.66;;;22.08;43.77
74228;BME280;62587;52.352;5.006;2023-03-21T07:37:41;101275.06;;;22.14;43.86
74228;BME280;62587;52.352;5.006;2023-03-21T07:40:07;101278.06;;;22.09;43.54
74228;BME280;62587;52.352;5.006;2023-03-21T07:42:36;101275.59;;;22.06;43.84
74228;BME280;62587;52.352;5.006;2023-03-21T07:45:02;101273.03;;;22.05;43.97
74228;BME280;62587;52.352;5.006;2023-03-21T07:47:29;101283.47;;;22.08;43.78
74228;BME280;62587;52.352;5.006;2023-03-21T07:49:55;101276.97;;;22.12;43.76
74228;BME280;62587;52.352;5.006;2023-03-21T07:52:20;101277.50;;;22.17;43.80
74228;BME280;62587;52.352;5.006;2023-03-21T07:54:46;101275.25;;;22.23;43.60
74228;BME280;62587;52.352;5.006;2023-03-21T07:57:11;101277.03;;;22.35;43.50
74228;BME280;62587;52.352;5.006;2023-03-21T07:59:36;101266.50;;;22.34;43.43
74228;BME280;62587;52.352;5.006;2023-03-21T08:02:02;101264.25;;;22.28;43.80
74228;BME280;62587;52.352;5.006;2023-03-21T08:04:27;101259.78;;;22.28;43.55
74228;BME280;62587;52.352;5.006;2023-03-21T08:06:53;101260.53;;;22.18;44.01
74228;BME280;62587;52.352;5.006;2023-03-21T08:09:18;101262.25;;;22.19;43.87
74228;BME280;62587;52.352;5.006;2023-03-21T08:11:43;101264.91;;;22.19;43.97
74228;BME280;62587;52.352;5.006;2023-03-21T08:14:09;101255.31;;;22.16;44.14
74228;BME280;62587;52.352;5.006;2023-03-21T08:16:34;101260.25;;;22.10;43.91
74228;BME280;62587;52.352;5.006;2023-03-21T08:19:00;101255.97;;;22.07;43.65
74228;BME280;62587;52.352;5.006;2023-03-21T08:21:25;101247.75;;;22.10;43.41
74228;BME280;62587;52.352;5.006;2023-03-21T08:23:52;101236.25;;;22.10;43.24
74228;BME280;62587;52.352;5.006;2023-03-21T08:26:18;101249.13;;;22.03;43.54
74228;BME280;62587;52.352;5.006;2023-03-21T08:28:44;101243.94;;;22.01;43.51
74228;BME280;62587;52.352;5.006;2023-03-21T08:31:11;101238.81;;;21.98;43.40
74228;BME280;62587;52.352;5.006;2023-03-21T08:33:37;101237.41;;;22.06;43.04
74228;BME280;62587;52.352;5.006;2023-03-21T08:36:03;101226.13;;;22.02;43.22
74228;BME280;62587;52.352;5.006;2023-03-21T08:38:29;101226.22;;;22.00;43.26
74228;BME280;62587;52.352;5.006;2023-03-21T08:40:58;101220.69;;;21.91;43.57
74228;BME280;62587;52.352;5.006;2023-03-21T08:43:25;101221.22;;;21.83;43.67
74228;BME280;62587;52.352;5.006;2023-03-21T08:45:50;101221.50;;;21.79;43.73
74228;BME280;62587;52.352;5.006;2023-03-21T08:48:15;101216.50;;;21.74;43.77
74228;BME280;62587;52.352;5.006;2023-03-21T08:50:41;101216.75;;;21.59;44.17
74228;BME280;62587;52.352;5.006;2023-03-21T08:53:06;101207.56;;;21.50;44.30
74228;BME280;62587;52.352;5.006;2023-03-21T08:55:32;101194.56;;;21.46;44.71
74228;BME280;62587;52.352;5.006;2023-03-21T08:57:58;101199.16;;;21.44;44.52
74228;BME280;62587;52.352;5.006;2023-03-21T09:00:24;101203.94;;;21.38;44.56
74228;BME280;62587;52.352;5.006;2023-03-21T09:02:50;101201.59;;;21.34;44.77
74228;BME280;62587;52.352;5.006;2023-03-21T09:05:17;101200.75;;;21.33;44.73
74228;BME280;62587;52.352;5.006;2023-03-21T09:07:44;101203.53;;;21.32;44.69
74228;BME280;62587;52.352;5.006;2023-03-21T09:10:12;101201.81;;;21.31;44.73
74228;BME280;62587;52.352;5.006;2023-03-21T09:12:38;101203.41;;;21.33;44.60
74228;BME280;62587;52.352;5.006;2023-03-21T09:15:05;101201.59;;;21.34;44.36
74228;BME280;62587;52.352;5.006;2023-03-21T09:17:31;101193.94;;;21.29;44.86
74228;BME280;62587;52.352;5.006;2023-03-21T09:19:57;101195.94;;;21.26;44.63
74228;BME280;62587;52.352;5.006;2023-03-21T09:22:25;101191.38;;;21.28;44.46
74228;BME280;62587;52.352;5.006;2023-03-21T09:24:51;101191.38;;;21.28;44.64
74228;BME280;62587;52.352;5.006;2023-03-21T09:27:17;101185.00;;;21.30;44.44
74228;BME280;62587;52.352;5.006;2023-03-21T09:29:49;101180.81;;;21.26;44.61
74228;BME280;62587;52.352;5.006;2023-03-21T09:32:15;101177.28;;;21.26;44.60
74228;BME280;62587;52.352;5.006;2023-03-21T09:34:42;101184.34;;;21.27;44.50
74228;BME280;62587;52.352;5.006;2023-03-21T09:37:08;101184.34;;;21.27;44.54
74228;BME280;62587;52.352;5.006;2023-03-21T09:39:42;101181.13;;;21.22;44.60
74228;BME280;62587;52.352;5.006;2023-03-21T09:42:29;101185.41;;;21.24;44.67
74228;BME280;62587;52.352;5.006;2023-03-21T09:47:25;101171.22;;;21.24;44.18
74228;BME280;62587;52.352;5.006;2023-03-21T09:50:02;101169.63;;;21.21;44.45
74228;BME280;62587;52.352;5.006;2023-03-21T09:55:29;101181.88;;;21.24;44.27
74228;BME280;62587;52.352;5.006;2023-03-21T09:58:04;101179.44;;;21.21;44.49
74228;BME280;62587;52.352;5.006;2023-03-21T10:00:37;101173.91;;;21.24;44.27
74228;BME280;62587;52.352;5.006;2023-03-21T10:03:20;101169.75;;;21.20;44.34
74228;BME280;62587;52.352;5.006;2023-03-21T10:05:53;101170.69;;;21.31;44.08
74228;BME280;62587;52.352;5.006;2023-03-21T10:08:29;101162.50;;;21.22;44.29
74228;BME280;62587;52.352;5.006;2023-03-21T10:11:02;101167.19;;;21.18;44.44
74228;BME280;62587;52.352;5.006;2023-03-21T10:16:43;101168.69;;;21.22;44.34
74228;BME280;62587;52.352;5.006;2023-03-21T10:19:13;101165.06;;;21.23;44.19
74228;BME280;62587;52.352;5.006;2023-03-21T10:21:40;101157.28;;;21.20;44.43
74228;BME280;62587;52.352;5.006;2023-03-21T10:24:14;101156.56;;;21.18;44.30
74228;BME280;62587;52.352;5.006;2023-03-21T10:26:42;101161.09;;;21.16;44.38
74228;BME280;62587;52.352;5.006;2023-03-21T10:29:09;101161.34;;;21.13;44.49
74228;BME280;62587;52.352;5.006;2023-03-21T10:31:36;101164.00;;;21.13;44.31
74228;BME280;62587;52.352;5.006;2023-03-21T10:36:39;101162.41;;;21.11;44.47
74228;BME280;62587;52.352;5.006;2023-03-21T10:39:09;101157.69;;;21.14;44.39
74228;BME280;62587;52.352;5.006;2023-03-21T10:41:39;101153.66;;;21.09;44.30
74228;BME280;62587;52.352;5.006;2023-03-21T10:44:13;101150.16;;;21.08;44.57
74228;BME280;62587;52.352;5.006;2023-03-21T10:46:56;101163.34;;;21.10;44.42
74228;BME280;62587;52.352;5.006;2023-03-21T10:49:23;101162.94;;;21.16;44.58
74228;BME280;62587;52.352;5.006;2023-03-21T10:51:52;101170.41;;;21.23;44.42
74228;BME280;62587;52.352;5.006;2023-03-21T10:54:20;101166.88;;;21.23;44.51
74228;BME280;62587;52.352;5.006;2023-03-21T10:56:57;101167.50;;;21.26;44.41
74228;BME280;62587;52.352;5.006;2023-03-21T10:59:27;101162.19;;;21.26;44.54
74228;BME280;62587;52.352;5.006;2023-03-21T11:01:54;101168.56;;;21.24;44.71
74228;BME280;62587;52.352;5.006;2023-03-21T11:04:26;101160.50;;;21.25;44.68
74228;BME280;62587;52.352;5.006;2023-03-21T11:06:56;101161.63;;;21.21;44.74
74228;BME280;62587;52.352;5.006;2023-03-21T11:09:22;101156.22;;;21.23;44.69
74228;BME280;62587;52.352;5.006;2023-03-21T11:12:15;101156.22;;;21.23;44.68
74228;BME280;62587;52.352;5.006;2023-03-21T11:14:46;101146.84;;;21.17;44.87
74228;BME280;62587;52.352;5.006;2023-03-21T11:19:40;101148.56;;;21.18;44.80
74228;BME280;62587;52.352;5.006;2023-03-21T11:22:11;101146.63;;;21.20;44.82
74228;BME280;62587;52.352;5.006;2023-03-21T11:24:37;101144.19;;;21.17;44.88
74228;BME280;62587;52.352;5.006;2023-03-21T11:27:06;101134.94;;;21.23;45.17
74228;BME280;62587;52.352;5.006;2023-03-21T11:29:35;101129.28;;;21.40;44.68
74228;BME280;62587;52.352;5.006;2023-03-21T11:32:24;101134.16;;;21.46;44.24
74228;BME280;62587;52.352;5.006;2023-03-21T11:35:20;101131.94;;;21.40;44.47
74228;BME280;62587;52.352;5.006;2023-03-21T11:37:52;101124.16;;;21.50;44.61
74228;BME280;62587;52.352;5.006;2023-03-21T11:40:34;101123.91;;;21.53;44.62
74228;BME280;62587;52.352;5.006;2023-03-21T11:48:23;101119.53;;;21.64;44.30
74228;BME280;62587;52.352;5.006;2023-03-21T11:50:51;101137.09;;;21.67;44.22
74228;BME280;62587;52.352;5.006;2023-03-21T11:53:36;101133.78;;;21.76;43.97
74228;BME280;62587;52.352;5.006;2023-03-21T11:56:23;101127.63;;;21.63;44.16
74228;BME280;62587;52.352;5.006;2023-03-21T11:59:02;101132.13;;;21.50;44.53
74228;BME280;62587;52.352;5.006;2023-03-21T12:01:39;101140.00;;;21.38;44.77
74228;BME280;62587;52.352;5.006;2023-03-21T12:09:37;101119.16;;;21.32;44.88
74228;BME280;62587;52.352;5.006;2023-03-21T12:12:21;101122.13;;;21.28;45.08
74228;BME280;62587;52.352;5.006;2023-03-21T12:15:00;101116.69;;;21.29;44.98
74228;BME280;62587;52.352;5.006;2023-03-21T12:20:36;101095.38;;;21.29;44.86
74228;BME280;62587;52.352;5.006;2023-03-21T12:23:12;101096.78;;;21.35;44.76
74228;BME280;62587;52.352;5.006;2023-03-21T12:25:53;101098.72;;;21.33;44.86
74228;BME280;62587;52.352;5.006;2023-03-21T12:28:50;101103.06;;;21.34;44.58
74228;BME280;62587;52.352;5.006;2023-03-21T12:31:26;101089.94;;;21.31;44.85
74228;BME280;62587;52.352;5.006;2023-03-21T12:34:12;101087.94;;;21.34;44.75
74228;BME280;62587;52.352;5.006;2023-03-21T12:39:34;101082.81;;;21.31;44.74
74228;BME280;62587;52.352;5.006;2023-03-21T12:42:08;101070.34;;;21.32;44.71
74228;BME280;62587;52.352;5.006;2023-03-21T12:44:42;101070.16;;;21.35;44.49
74228;BME280;62587;52.352;5.006;2023-03-21T12:47:14;101067.56;;;21.33;44.50
74228;BME280;62587;52.352;5.006;2023-03-21T12:49:46;101066.94;;;21.43;44.25
74228;BME280;62587;52.352;5.006;2023-03-21T12:52:43;101063.41;;;21.42;44.42
74228;BME280;62587;52.352;5.006;2023-03-21T12:55:32;101059.69;;;21.45;44.22
74228;BME280;62587;52.352;5.006;2023-03-21T13:00:40;101062.88;;;21.50;44.18
74228;BME280;62587;52.352;5.006;2023-03-21T13:03:14;101049.63;;;21.48;44.23
74228;BME280;62587;52.352;5.006;2023-03-21T13:05:47;101054.97;;;21.48;44.26
74228;BME280;62587;52.352;5.006;2023-03-21T13:08:16;101046.88;;;21.50;43.99
74228;BME280;62587;52.352;5.006;2023-03-21T13:10:43;101052.31;;;21.48;44.27
74228;BME280;62587;52.352;5.006;2023-03-21T13:13:20;101048.06;;;21.46;44.27
74228;BME280;62587;52.352;5.006;2023-03-21T13:16:08;101049.13;;;21.43;44.35
74228;BME280;62587;52.352;5.006;2023-03-21T13:18:51;101049.13;;;21.43;44.47
74228;BME280;62587;52.352;5.006;2023-03-21T13:24:01;101052.75;;;21.42;44.45
74228;BME280;62587;52.352;5.006;2023-03-21T13:26:39;101050.31;;;21.39;44.52
74228;BME280;62587;52.352;5.006;2023-03-21T13:29:32;101046.78;;;21.38;44.46
74228;BME280;62587;52.352;5.006;2023-03-21T13:32:08;101040.72;;;21.36;44.59
74228;BME280;62587;52.352;5.006;2023-03-21T13:34:37;101025.69;;;21.35;44.54
74228;BME280;62587;52.352;5.006;2023-03-21T13:37:03;101029.84;;;21.40;44.35
74228;BME280;62587;52.352;5.006;2023-03-21T13:39:29;101041.66;;;21.35;44.46
74228;BME280;62587;52.352;5.006;2023-03-21T13:42:01;101040.00;;;21.34;44.36
74228;BME280;62587;52.352;5.006;2023-03-21T13:44:38;101031.00;;;21.35;44.51
74228;BME280;62587;52.352;5.006;2023-03-21T13:47:21;101039.34;;;21.31;44.62
74228;BME280;62587;52.352;5.006;2023-03-21T13:50:27;101020.69;;;21.31;44.50
74228;BME280;62587;52.352;5.006;2023-03-21T13:55:42;101021.88;;;21.27;44.48
74228;BME280;62587;52.352;5.006;2023-03-21T13:58:32;101018.69;;;21.22;44.75
74228;BME280;62587;52.352;5.006;2023-03-21T14:04:05;101019.22;;;21.27;44.59
74228;BME280;62587;52.352;5.006;2023-03-21T14:09:32;101012.84;;;21.29;44.47